sensor_id;sensor_type;location;lat;lon;timestamp;P1;durP1;ratioP1;P2;durP2;ratioP2
83278;SDS011;73398;51.844;10.790;2024-02-28T00:02:24;15.73;;;8.65;;
83278;SDS011;73398;51.844;10.790;2024-02-28T00:04:50;16.45;;;9.48;;
83278;SDS011;73398;51.844;10.790;2024-02-28T00:07:16;14.07;;;8.32;;
83278;SDS011;73398;51.844;10.790;2024-02-28T00:09:43;16.13;;;8.35;;
83278;SDS011;73398;51.844;10.790;2024-02-28T00:12:09;15.73;;;8.70;;
83278;SDS011;73398;51.844;10.790;2024-02-28T00:14:35;16.05;;;8.77;;
83278;SDS011;73398;51.844;10.790;2024-02-28T00:17:01;14.60;;;8.98;;
83278;SDS011;73398;51.844;10.790;2024-02-28T00:19:27;14.38;;;8.05;;
83278;SDS011;73398;51.844;10.790;2024-02-28T00:21:53;14.38;;;8.38;;
83278;SDS011;73398;51.844;10.790;2024-02-28T00:24:19;14.23;;;8.50;;
83278;SDS011;73398;51.844;10.790;2024-02-28T00:26:45;15.40;;;8.90;;
83278;SDS011;73398;51.844;10.790;2024-02-28T00:29:11;13.60;;;7.95;;
83278;SDS011;73398;51.844;10.790;2024-02-28T00:31:37;13.95;;;8.30;;
83278;SDS011;73398;51.844;10.790;2024-02-28T00:34:03;13.05;;;9.02;;
83278;SDS011;73398;51.844;10.790;2024-02-28T00:36:29;14.70;;;8.18;;
83278;SDS011;73398;51.844;10.790;2024-02-28T00:38:55;12.70;;;7.40;;
83278;SDS011;73398;51.844;10.790;2024-02-28T00:41:20;13.88;;;7.68;;
83278;SDS011;73398;51.844;10.790;2024-02-28T00:43:46;16.92;;;8.55;;
83278;SDS011;73398;51.844;10.790;2024-02-28T00:46:12;15.45;;;8.30;;
83278;SDS011;73398;51.844;10.790;2024-02-28T00:48:38;14.10;;;7.85;;
83278;SDS011;73398;51.844;10.790;2024-02-28T00:51:04;16.15;;;8.68;;
83278;SDS011;73398;51.844;10.790;2024-02-28T00:53:30;16.05;;;8.25;;
83278;SDS011;73398;51.844;10.790;2024-02-28T00:55:57;20.58;;;9.15;;
83278;SDS011;73398;51.844;10.790;2024-02-28T00:58:23;16.02;;;8.40;;
83278;SDS011;73398;51.844;10.790;2024-02-28T01:00:51;14.98;;;8.35;;
83278;SDS011;73398;51.844;10.790;2024-02-28T01:03:17;13.75;;;7.03;;
83278;SDS011;73398;51.844;10.790;2024-02-28T01:05:43;12.98;;;7.35;;
83278;SDS011;73398;51.844;10.790;2024-02-28T01:08:09;13.10;;;6.97;;
83278;SDS011;73398;51.844;10.790;2024-02-28T01:10:35;13.23;;;7.22;;
83278;SDS011;73398;51.844;10.790;2024-02-28T01:13:01;12.18;;;7.18;;
83278;SDS011;73398;51.844;10.790;2024-02-28T01:15:28;12.82;;;6.70;;
83278;SDS011;73398;51.844;10.790;2024-02-28T01:17:53;14.65;;;7.68;;
83278;SDS011;73398;51.844;10.790;2024-02-28T01:20:19;15.25;;;7.50;;
83278;SDS011;73398;51.844;10.790;2024-02-28T01:22:45;16.83;;;8.45;;
83278;SDS011;73398;51.844;10.790;2024-02-28T01:25:11;14.40;;;7.70;;
83278;SDS011;73398;51.844;10.790;2024-02-28T01:27:37;12.93;;;7.35;;
83278;SDS011;73398;51.844;10.790;2024-02-28T01:30:03;13.55;;;6.82;;
83278;SDS011;73398;51.844;10.790;2024-02-28T01:32:29;15.20;;;6.50;;
83278;SDS011;73398;51.844;10.790;2024-02-28T01:34:56;13.70;;;6.90;;
83278;SDS011;73398;51.844;10.790;2024-02-28T01:37:22;14.00;;;7.00;;
83278;SDS011;73398;51.844;10.790;2024-02-28T01:39:48;14.57;;;8.13;;
83278;SDS011;73398;51.844;10.790;2024-02-28T01:42:14;18.05;;;7.47;;
83278;SDS011;73398;51.844;10.790;2024-02-28T01:44:42;13.55;;;7.28;;
83278;SDS011;73398;51.844;10.790;2024-02-28T01:47:09;15.88;;;7.60;;
83278;SDS011;73398;51.844;10.790;2024-02-28T01:49:34;18.17;;;8.70;;
83278;SDS011;73398;51.844;10.790;2024-02-28T01:52:00;15.10;;;7.68;;
83278;SDS011;73398;51.844;10.790;2024-02-28T01:54:27;16.95;;;9.10;;
83278;SDS011;73398;51.844;10.790;2024-02-28T01:56:54;15.55;;;8.43;;
83278;SDS011;73398;51.844;10.790;2024-02-28T01:59:20;15.68;;;8.07;;
83278;SDS011;73398;51.844;10.790;2024-02-28T02:01:48;16.58;;;9.10;;
83278;SDS011;73398;51.844;10.790;2024-02-28T02:04:14;16.38;;;8.88;;
83278;SDS011;73398;51.844;10.790;2024-02-28T02:06:42;16.95;;;8.50;;
83278;SDS011;73398;51.844;10.790;2024-02-28T02:09:08;15.25;;;7.32;;
83278;SDS011;73398;51.844;10.790;2024-02-28T02:11:34;17.08;;;8.77;;
83278;SDS011;73398;51.844;10.790;2024-02-28T02:14:00;17.60;;;8.77;;
83278;SDS011;73398;51.844;10.790;2024-02-28T02:16:26;15.02;;;8.40;;
83278;SDS011;73398;51.844;10.790;2024-02-28T02:18:52;19.23;;;9.77;;
83278;SDS011;73398;51.844;10.790;2024-02-28T02:21:19;18.73;;;9.63;;
83278;SDS011;73398;51.844;10.790;2024-02-28T02:23:45;19.58;;;9.75;;
83278;SDS011;73398;51.844;10.790;2024-02-28T02:26:11;17.48;;;9.70;;
83278;SDS011;73398;51.844;10.790;2024-02-28T02:28:37;17.58;;;9.68;;
83278;SDS011;73398;51.844;10.790;2024-02-28T02:31:03;17.92;;;9.70;;
83278;SDS011;73398;51.844;10.790;2024-02-28T02:33:29;16.58;;;8.73;;
83278;SDS011;73398;51.844;10.790;2024-02-28T02:35:55;22.52;;;9.20;;
83278;SDS011;73398;51.844;10.790;2024-02-28T02:38:21;18.15;;;9.40;;
83278;SDS011;73398;51.844;10.790;2024-02-28T02:40:50;16.95;;;8.68;;
83278;SDS011;73398;51.844;10.790;2024-02-28T02:43:16;15.70;;;8.65;;
83278;SDS011;73398;51.844;10.790;2024-02-28T02:45:42;19.65;;;9.52;;
83278;SDS011;73398;51.844;10.790;2024-02-28T02:48:09;18.45;;;10.68;;
83278;SDS011;73398;51.844;10.790;2024-02-28T02:50:35;19.52;;;9.77;;
83278;SDS011;73398;51.844;10.790;2024-02-28T02:53:01;19.85;;;10.77;;
83278;SDS011;73398;51.844;10.790;2024-02-28T02:55:27;20.58;;;10.35;;
83278;SDS011;73398;51.844;10.790;2024-02-28T02:57:52;19.95;;;9.55;;
83278;SDS011;73398;51.844;10.790;2024-02-28T03:00:19;23.30;;;11.88;;
83278;SDS011;73398;51.844;10.790;2024-02-28T03:02:45;22.08;;;10.95;;
83278;SDS011;73398;51.844;10.790;2024-02-28T03:05:11;20.23;;;10.75;;
83278;SDS011;73398;51.844;10.790;2024-02-28T03:07:37;20.45;;;11.07;;
83278;SDS011;73398;51.844;10.790;2024-02-28T03:10:03;26.85;;;12.85;;
83278;SDS011;73398;51.844;10.790;2024-02-28T03:12:29;31.45;;;13.10;;
83278;SDS011;73398;51.844;10.790;2024-02-28T03:14:55;29.60;;;13.77;;
83278;SDS011;73398;51.844;10.790;2024-02-28T03:17:21;24.38;;;11.30;;
83278;SDS011;73398;51.844;10.790;2024-02-28T03:19:46;22.08;;;11.65;;
83278;SDS011;73398;51.844;10.790;2024-02-28T03:22:12;22.92;;;11.57;;
83278;SDS011;73398;51.844;10.790;2024-02-28T03:24:38;28.45;;;12.73;;
83278;SDS011;73398;51.844;10.790;2024-02-28T03:27:04;21.95;;;10.52;;
83278;SDS011;73398;51.844;10.790;2024-02-28T03:29:30;23.55;;;10.57;;
83278;SDS011;73398;51.844;10.790;2024-02-28T03:31:57;19.17;;;9.40;;
83278;SDS011;73398;51.844;10.790;2024-02-28T03:34:23;24.10;;;11.63;;
83278;SDS011;73398;51.844;10.790;2024-02-28T03:36:50;23.35;;;11.18;;
83278;SDS011;73398;51.844;10.790;2024-02-28T03:39:15;26.45;;;12.07;;
83278;SDS011;73398;51.844;10.790;2024-02-28T03:41:41;24.55;;;11.18;;
83278;SDS011;73398;51.844;10.790;2024-02-28T03:44:07;23.05;;;10.93;;
83278;SDS011;73398;51.844;10.790;2024-02-28T03:46:33;27.30;;;11.38;;
83278;SDS011;73398;51.844;10.790;2024-02-28T03:48:59;25.88;;;11.73;;
83278;SDS011;73398;51.844;10.790;2024-02-28T03:51:25;26.70;;;12.05;;
83278;SDS011;73398;51.844;10.790;2024-02-28T03:53:51;25.55;;;11.73;;
83278;SDS011;73398;51.844;10.790;2024-02-28T03:56:24;29.27;;;13.25;;
83278;SDS011;73398;51.844;10.790;2024-02-28T03:58:50;27.85;;;12.70;;
83278;SDS011;73398;51.844;10.790;2024-02-28T04:01:16;30.35;;;13.85;;
83278;SDS011;73398;51.844;10.790;2024-02-28T04:03:42;25.63;;;11.60;;
83278;SDS011;73398;51.844;10.790;2024-02-28T04:06:08;24.25;;;10.25;;
83278;SDS011;73398;51.844;10.790;2024-02-28T04:08:34;29.77;;;11.98;;
83278;SDS011;73398;51.844;10.790;2024-02-28T04:11:00;27.27;;;11.93;;
83278;SDS011;73398;51.844;10.790;2024-02-28T04:13:25;26.90;;;12.43;;
83278;SDS011;73398;51.844;10.790;2024-02-28T04:15:51;25.30;;;11.32;;
83278;SDS011;73398;51.844;10.790;2024-02-28T04:18:17;28.05;;;11.20;;
83278;SDS011;73398;51.844;10.790;2024-02-28T04:20:43;20.65;;;10.77;;
83278;SDS011;73398;51.844;10.790;2024-02-28T04:23:09;27.08;;;11.95;;
83278;SDS011;73398;51.844;10.790;2024-02-28T04:25:35;23.48;;;10.68;;
83278;SDS011;73398;51.844;10.790;2024-02-28T04:28:01;18.45;;;9.07;;
83278;SDS011;73398;51.844;10.790;2024-02-28T04:30:28;20.05;;;10.02;;
83278;SDS011;73398;51.844;10.790;2024-02-28T04:32:54;17.88;;;8.00;;
83278;SDS011;73398;51.844;10.790;2024-02-28T04:35:20;17.63;;;8.27;;
83278;SDS011;73398;51.844;10.790;2024-02-28T04:37:46;16.63;;;7.65;;
83278;SDS011;73398;51.844;10.790;2024-02-28T04:40:12;16.33;;;7.13;;
83278;SDS011;73398;51.844;10.790;2024-02-28T04:42:38;23.67;;;10.38;;
83278;SDS011;73398;51.844;10.790;2024-02-28T04:45:04;34.10;;;15.75;;
83278;SDS011;73398;51.844;10.790;2024-02-28T04:47:30;26.60;;;11.68;;
83278;SDS011;73398;51.844;10.790;2024-02-28T04:49:56;18.45;;;8.73;;
83278;SDS011;73398;51.844;10.790;2024-02-28T04:52:23;21.27;;;10.13;;
83278;SDS011;73398;51.844;10.790;2024-02-28T04:54:50;23.17;;;10.80;;
83278;SDS011;73398;51.844;10.790;2024-02-28T04:57:15;23.58;;;9.60;;
83278;SDS011;73398;51.844;10.790;2024-02-28T04:59:43;25.38;;;11.38;;
83278;SDS011;73398;51.844;10.790;2024-02-28T05:02:10;22.10;;;10.88;;
83278;SDS011;73398;51.844;10.790;2024-02-28T05:04:36;23.65;;;10.27;;
83278;SDS011;73398;51.844;10.790;2024-02-28T05:07:02;21.33;;;9.95;;
83278;SDS011;73398;51.844;10.790;2024-02-28T05:09:28;19.73;;;8.32;;
83278;SDS011;73398;51.844;10.790;2024-02-28T05:11:54;13.27;;;7.40;;
83278;SDS011;73398;51.844;10.790;2024-02-28T05:14:20;14.18;;;7.55;;
83278;SDS011;73398;51.844;10.790;2024-02-28T05:16:46;16.88;;;7.65;;
83278;SDS011;73398;51.844;10.790;2024-02-28T05:19:13;17.58;;;7.75;;
83278;SDS011;73398;51.844;10.790;2024-02-28T05:21:39;17.17;;;7.43;;
83278;SDS011;73398;51.844;10.790;2024-02-28T05:24:06;17.05;;;8.38;;
83278;SDS011;73398;51.844;10.790;2024-02-28T05:26:33;17.02;;;7.38;;
83278;SDS011;73398;51.844;10.790;2024-02-28T05:28:59;17.25;;;8.30;;
83278;SDS011;73398;51.844;10.790;2024-02-28T05:31:26;17.67;;;8.85;;
83278;SDS011;73398;51.844;10.790;2024-02-28T05:33:53;17.58;;;7.78;;
83278;SDS011;73398;51.844;10.790;2024-02-28T05:36:21;18.13;;;8.52;;
83278;SDS011;73398;51.844;10.790;2024-02-28T05:38:47;15.98;;;7.75;;
83278;SDS011;73398;51.844;10.790;2024-02-28T05:41:13;12.75;;;6.70;;
83278;SDS011;73398;51.844;10.790;2024-02-28T05:43:40;13.75;;;6.95;;
83278;SDS011;73398;51.844;10.790;2024-02-28T05:46:06;13.85;;;7.05;;
83278;SDS011;73398;51.844;10.790;2024-02-28T05:48:32;17.00;;;8.95;;
83278;SDS011;73398;51.844;10.790;2024-02-28T05:50:59;16.45;;;7.85;;
83278;SDS011;73398;51.844;10.790;2024-02-28T05:53:26;14.02;;;8.20;;
83278;SDS011;73398;51.844;10.790;2024-02-28T05:55:52;18.33;;;8.80;;
83278;SDS011;73398;51.844;10.790;2024-02-28T05:58:18;14.73;;;7.40;;
83278;SDS011;73398;51.844;10.790;2024-02-28T06:00:44;19.13;;;9.02;;
83278;SDS011;73398;51.844;10.790;2024-02-28T06:03:10;15.93;;;8.18;;
83278;SDS011;73398;51.844;10.790;2024-02-28T06:05:36;19.25;;;9.02;;
83278;SDS011;73398;51.844;10.790;2024-02-28T06:08:02;20.17;;;9.13;;
83278;SDS011;73398;51.844;10.790;2024-02-28T06:10:28;21.17;;;9.90;;
83278;SDS011;73398;51.844;10.790;2024-02-28T06:12:54;19.75;;;9.75;;
83278;SDS011;73398;51.844;10.790;2024-02-28T06:15:19;21.92;;;9.73;;
83278;SDS011;73398;51.844;10.790;2024-02-28T06:18:01;18.85;;;9.05;;
83278;SDS011;73398;51.844;10.790;2024-02-28T06:20:27;19.33;;;8.80;;
83278;SDS011;73398;51.844;10.790;2024-02-28T06:22:53;20.80;;;11.15;;
83278;SDS011;73398;51.844;10.790;2024-02-28T06:25:19;19.02;;;9.35;;
83278;SDS011;73398;51.844;10.790;2024-02-28T06:27:47;18.67;;;9.55;;
83278;SDS011;73398;51.844;10.790;2024-02-28T06:30:14;15.90;;;9.27;;
83278;SDS011;73398;51.844;10.790;2024-02-28T06:32:40;16.40;;;8.65;;
83278;SDS011;73398;51.844;10.790;2024-02-28T06:35:08;21.98;;;9.63;;
83278;SDS011;73398;51.844;10.790;2024-02-28T06:37:34;20.95;;;9.05;;
83278;SDS011;73398;51.844;10.790;2024-02-28T06:40:01;19.02;;;9.07;;
83278;SDS011;73398;51.844;10.790;2024-02-28T06:42:29;16.88;;;9.20;;
83278;SDS011;73398;51.844;10.790;2024-02-28T06:44:55;16.50;;;9.45;;
83278;SDS011;73398;51.844;10.790;2024-02-28T06:47:21;18.70;;;9.57;;
83278;SDS011;73398;51.844;10.790;2024-02-28T06:49:47;17.73;;;9.88;;
83278;SDS011;73398;51.844;10.790;2024-02-28T06:52:14;21.48;;;10.43;;
83278;SDS011;73398;51.844;10.790;2024-02-28T06:54:40;23.52;;;11.52;;
83278;SDS011;73398;51.844;10.790;2024-02-28T06:57:06;23.13;;;11.55;;
83278;SDS011;73398;51.844;10.790;2024-02-28T06:59:32;25.33;;;12.40;;
83278;SDS011;73398;51.844;10.790;2024-02-28T07:01:58;22.20;;;11.52;;
83278;SDS011;73398;51.844;10.790;2024-02-28T07:04:24;23.75;;;11.82;;
83278;SDS011;73398;51.844;10.790;2024-02-28T07:06:50;24.92;;;12.93;;
83278;SDS011;73398;51.844;10.790;2024-02-28T07:09:15;23.75;;;10.98;;
83278;SDS011;73398;51.844;10.790;2024-02-28T07:11:42;20.98;;;10.95;;
83278;SDS011;73398;51.844;10.790;2024-02-28T07:14:07;22.35;;;11.07;;
83278;SDS011;73398;51.844;10.790;2024-02-28T07:16:33;21.45;;;10.93;;
83278;SDS011;73398;51.844;10.790;2024-02-28T07:19:02;23.73;;;11.98;;
83278;SDS011;73398;51.844;10.790;2024-02-28T07:21:28;24.67;;;11.35;;
83278;SDS011;73398;51.844;10.790;2024-02-28T07:23:55;22.17;;;11.60;;
83278;SDS011;73398;51.844;10.790;2024-02-28T07:26:21;22.55;;;10.52;;
83278;SDS011;73398;51.844;10.790;2024-02-28T07:28:47;21.95;;;10.30;;
83278;SDS011;73398;51.844;10.790;2024-02-28T07:31:15;21.02;;;10.60;;
83278;SDS011;73398;51.844;10.790;2024-02-28T07:33:40;19.65;;;10.73;;
83278;SDS011;73398;51.844;10.790;2024-02-28T07:36:06;19.67;;;10.35;;
83278;SDS011;73398;51.844;10.790;2024-02-28T07:38:33;23.42;;;11.38;;
83278;SDS011;73398;51.844;10.790;2024-02-28T07:40:59;24.45;;;12.13;;
83278;SDS011;73398;51.844;10.790;2024-02-28T07:43:25;24.25;;;11.45;;
83278;SDS011;73398;51.844;10.790;2024-02-28T07:45:51;24.35;;;11.38;;
83278;SDS011;73398;51.844;10.790;2024-02-28T07:48:16;21.00;;;11.35;;
83278;SDS011;73398;51.844;10.790;2024-02-28T07:50:45;22.58;;;11.40;;
83278;SDS011;73398;51.844;10.790;2024-02-28T07:53:12;23.60;;;10.98;;
83278;SDS011;73398;51.844;10.790;2024-02-28T07:55:38;21.88;;;11.23;;
83278;SDS011;73398;51.844;10.790;2024-02-28T07:58:04;23.70;;;12.80;;
83278;SDS011;73398;51.844;10.790;2024-02-28T08:00:31;25.70;;;11.98;;
83278;SDS011;73398;51.844;10.790;2024-02-28T08:02:58;27.52;;;12.95;;
83278;SDS011;73398;51.844;10.790;2024-02-28T08:05:24;25.58;;;12.07;;
83278;SDS011;73398;51.844;10.790;2024-02-28T08:07:50;25.90;;;12.38;;
83278;SDS011;73398;51.844;10.790;2024-02-28T08:10:17;25.48;;;12.43;;
83278;SDS011;73398;51.844;10.790;2024-02-28T08:12:42;26.38;;;13.30;;
83278;SDS011;73398;51.844;10.790;2024-02-28T08:15:08;28.90;;;13.68;;
83278;SDS011;73398;51.844;10.790;2024-02-28T08:17:34;26.55;;;13.93;;
83278;SDS011;73398;51.844;10.790;2024-02-28T08:20:01;25.77;;;12.50;;
83278;SDS011;73398;51.844;10.790;2024-02-28T08:22:29;27.50;;;13.60;;
83278;SDS011;73398;51.844;10.790;2024-02-28T08:24:55;23.25;;;11.30;;
83278;SDS011;73398;51.844;10.790;2024-02-28T08:27:21;28.50;;;12.38;;
83278;SDS011;73398;51.844;10.790;2024-02-28T08:29:49;23.13;;;10.98;;
83278;SDS011;73398;51.844;10.790;2024-02-28T08:32:15;21.00;;;11.45;;
83278;SDS011;73398;51.844;10.790;2024-02-28T08:34:44;21.50;;;11.15;;
83278;SDS011;73398;51.844;10.790;2024-02-28T08:37:14;20.73;;;11.32;;
83278;SDS011;73398;51.844;10.790;2024-02-28T08:39:40;20.27;;;10.95;;
83278;SDS011;73398;51.844;10.790;2024-02-28T08:42:06;25.30;;;11.80;;
83278;SDS011;73398;51.844;10.790;2024-02-28T08:44:32;21.77;;;10.68;;
83278;SDS011;73398;51.844;10.790;2024-02-28T08:46:58;24.45;;;11.05;;
83278;SDS011;73398;51.844;10.790;2024-02-28T08:49:24;24.38;;;12.43;;
83278;SDS011;73398;51.844;10.790;2024-02-28T08:51:51;23.77;;;11.48;;
83278;SDS011;73398;51.844;10.790;2024-02-28T08:54:17;20.95;;;10.57;;
83278;SDS011;73398;51.844;10.790;2024-02-28T08:56:43;21.17;;;11.20;;
83278;SDS011;73398;51.844;10.790;2024-02-28T08:59:09;19.33;;;10.43;;
83278;SDS011;73398;51.844;10.790;2024-02-28T09:01:34;27.65;;;12.50;;
83278;SDS011;73398;51.844;10.790;2024-02-28T09:04:01;21.13;;;10.68;;
83278;SDS011;73398;51.844;10.790;2024-02-28T09:06:28;22.90;;;11.18;;
83278;SDS011;73398;51.844;10.790;2024-02-28T09:08:54;22.40;;;10.95;;
83278;SDS011;73398;51.844;10.790;2024-02-28T09:11:20;24.38;;;12.80;;
83278;SDS011;73398;51.844;10.790;2024-02-28T09:13:46;19.63;;;9.73;;
83278;SDS011;73398;51.844;10.790;2024-02-28T09:16:12;19.30;;;10.13;;
83278;SDS011;73398;51.844;10.790;2024-02-28T09:18:38;19.27;;;10.05;;
83278;SDS011;73398;51.844;10.790;2024-02-28T09:21:04;18.33;;;9.85;;
83278;SDS011;73398;51.844;10.790;2024-02-28T09:23:30;21.02;;;10.07;;
83278;SDS011;73398;51.844;10.790;2024-02-28T09:25:56;21.52;;;11.15;;
83278;SDS011;73398;51.844;10.790;2024-02-28T09:28:22;21.67;;;10.75;;
83278;SDS011;73398;51.844;10.790;2024-02-28T09:30:48;19.08;;;10.35;;
83278;SDS011;73398;51.844;10.790;2024-02-28T09:33:15;19.63;;;10.60;;
83278;SDS011;73398;51.844;10.790;2024-02-28T09:35:44;21.08;;;11.32;;
83278;SDS011;73398;51.844;10.790;2024-02-28T09:38:10;20.63;;;11.77;;
83278;SDS011;73398;51.844;10.790;2024-02-28T09:40:36;19.83;;;10.48;;
83278;SDS011;73398;51.844;10.790;2024-02-28T09:43:03;18.55;;;10.95;;
83278;SDS011;73398;51.844;10.790;2024-02-28T09:45:29;21.25;;;10.88;;
83278;SDS011;73398;51.844;10.790;2024-02-28T09:47:57;18.55;;;10.73;;
83278;SDS011;73398;51.844;10.790;2024-02-28T09:50:23;18.75;;;10.88;;
83278;SDS011;73398;51.844;10.790;2024-02-28T09:52:51;18.75;;;10.32;;
83278;SDS011;73398;51.844;10.790;2024-02-28T09:55:17;17.05;;;10.65;;
83278;SDS011;73398;51.844;10.790;2024-02-28T09:57:43;19.52;;;11.25;;
83278;SDS011;73398;51.844;10.790;2024-02-28T10:00:11;18.83;;;10.70;;
83278;SDS011;73398;51.844;10.790;2024-02-28T10:02:37;22.17;;;11.48;;
83278;SDS011;73398;51.844;10.790;2024-02-28T10:05:05;21.20;;;11.43;;
83278;SDS011;73398;51.844;10.790;2024-02-28T10:07:31;21.33;;;11.15;;
83278;SDS011;73398;51.844;10.790;2024-02-28T10:09:57;21.83;;;11.77;;
83278;SDS011;73398;51.844;10.790;2024-02-28T10:12:24;19.10;;;10.65;;
83278;SDS011;73398;51.844;10.790;2024-02-28T10:14:50;17.80;;;10.20;;
83278;SDS011;73398;51.844;10.790;2024-02-28T10:17:16;17.33;;;10.20;;
83278;SDS011;73398;51.844;10.790;2024-02-28T10:19:42;16.80;;;10.38;;
83278;SDS011;73398;51.844;10.790;2024-02-28T10:22:08;19.00;;;10.48;;
83278;SDS011;73398;51.844;10.790;2024-02-28T10:24:34;18.80;;;10.98;;
83278;SDS011;73398;51.844;10.790;2024-02-28T10:27:00;18.00;;;10.20;;
83278;SDS011;73398;51.844;10.790;2024-02-28T10:29:26;14.90;;;10.10;;
83278;SDS011;73398;51.844;10.790;2024-02-28T10:31:59;16.25;;;10.20;;
83278;SDS011;73398;51.844;10.790;2024-02-28T10:34:25;17.33;;;10.35;;
83278;SDS011;73398;51.844;10.790;2024-02-28T10:36:51;14.70;;;9.20;;
83278;SDS011;73398;51.844;10.790;2024-02-28T10:39:17;14.32;;;9.13;;
83278;SDS011;73398;51.844;10.790;2024-02-28T10:41:45;14.93;;;9.75;;
83278;SDS011;73398;51.844;10.790;2024-02-28T10:44:12;15.77;;;10.45;;
83278;SDS011;73398;51.844;10.790;2024-02-28T10:46:39;14.57;;;9.05;;
83278;SDS011;73398;51.844;10.790;2024-02-28T10:49:05;13.02;;;8.55;;
83278;SDS011;73398;51.844;10.790;2024-02-28T10:51:33;14.73;;;9.30;;
83278;SDS011;73398;51.844;10.790;2024-02-28T10:54:12;14.15;;;9.07;;
83278;SDS011;73398;51.844;10.790;2024-02-28T10:56:39;13.73;;;9.52;;
83278;SDS011;73398;51.844;10.790;2024-02-28T10:59:06;15.07;;;9.25;;
83278;SDS011;73398;51.844;10.790;2024-02-28T11:01:35;16.55;;;10.43;;
83278;SDS011;73398;51.844;10.790;2024-02-28T11:04:02;18.20;;;10.20;;
83278;SDS011;73398;51.844;10.790;2024-02-28T11:06:28;17.50;;;10.88;;
83278;SDS011;73398;51.844;10.790;2024-02-28T11:08:54;17.85;;;11.07;;
83278;SDS011;73398;51.844;10.790;2024-02-28T11:11:21;16.77;;;10.10;;
83278;SDS011;73398;51.844;10.790;2024-02-28T11:13:54;18.20;;;10.82;;
83278;SDS011;73398;51.844;10.790;2024-02-28T11:16:30;19.42;;;11.05;;
83278;SDS011;73398;51.844;10.790;2024-02-28T11:18:56;18.25;;;11.02;;
83278;SDS011;73398;51.844;10.790;2024-02-28T11:21:23;16.02;;;10.15;;
83278;SDS011;73398;51.844;10.790;2024-02-28T11:23:50;17.33;;;10.93;;
83278;SDS011;73398;51.844;10.790;2024-02-28T11:26:16;15.90;;;10.00;;
83278;SDS011;73398;51.844;10.790;2024-02-28T11:28:42;17.13;;;10.70;;
83278;SDS011;73398;51.844;10.790;2024-02-28T11:31:08;18.08;;;11.07;;
83278;SDS011;73398;51.844;10.790;2024-02-28T11:33:37;19.55;;;12.27;;
83278;SDS011;73398;51.844;10.790;2024-02-28T11:36:04;16.80;;;10.63;;
83278;SDS011;73398;51.844;10.790;2024-02-28T11:38:30;18.10;;;10.90;;
83278;SDS011;73398;51.844;10.790;2024-02-28T11:40:56;17.73;;;10.98;;
83278;SDS011;73398;51.844;10.790;2024-02-28T11:43:22;17.77;;;9.98;;
83278;SDS011;73398;51.844;10.790;2024-02-28T11:45:48;19.35;;;10.00;;
83278;SDS011;73398;51.844;10.790;2024-02-28T11:48:15;15.05;;;9.88;;
83278;SDS011;73398;51.844;10.790;2024-02-28T11:50:41;16.88;;;10.70;;
83278;SDS011;73398;51.844;10.790;2024-02-28T11:53:07;15.32;;;9.95;;
83278;SDS011;73398;51.844;10.790;2024-02-28T11:55:33;15.57;;;10.00;;
83278;SDS011;73398;51.844;10.790;2024-02-28T11:57:59;15.50;;;10.05;;
83278;SDS011;73398;51.844;10.790;2024-02-28T12:00:25;16.02;;;10.38;;
83278;SDS011;73398;51.844;10.790;2024-02-28T12:02:51;17.73;;;10.82;;
83278;SDS011;73398;51.844;10.790;2024-02-28T12:05:19;16.83;;;10.23;;
83278;SDS011;73398;51.844;10.790;2024-02-28T12:07:45;16.55;;;10.40;;
83278;SDS011;73398;51.844;10.790;2024-02-28T12:10:11;18.42;;;11.32;;
83278;SDS011;73398;51.844;10.790;2024-02-28T12:12:38;17.38;;;10.57;;
83278;SDS011;73398;51.844;10.790;2024-02-28T12:15:06;16.95;;;10.77;;
83278;SDS011;73398;51.844;10.790;2024-02-28T12:17:32;17.90;;;11.25;;
83278;SDS011;73398;51.844;10.790;2024-02-28T12:20:01;18.17;;;11.60;;
83278;SDS011;73398;51.844;10.790;2024-02-28T12:22:27;18.10;;;11.20;;
83278;SDS011;73398;51.844;10.790;2024-02-28T12:24:53;18.13;;;11.52;;
83278;SDS011;73398;51.844;10.790;2024-02-28T12:27:19;21.38;;;12.88;;
83278;SDS011;73398;51.844;10.790;2024-02-28T12:29:45;18.83;;;12.13;;
83278;SDS011;73398;51.844;10.790;2024-02-28T12:32:11;17.55;;;11.40;;
83278;SDS011;73398;51.844;10.790;2024-02-28T12:34:37;20.50;;;12.40;;
83278;SDS011;73398;51.844;10.790;2024-02-28T12:37:03;16.65;;;11.20;;
83278;SDS011;73398;51.844;10.790;2024-02-28T12:39:30;17.52;;;11.20;;
83278;SDS011;73398;51.844;10.790;2024-02-28T12:41:59;18.70;;;11.80;;
83278;SDS011;73398;51.844;10.790;2024-02-28T12:44:24;20.00;;;12.55;;
83278;SDS011;73398;51.844;10.790;2024-02-28T12:46:51;21.70;;;13.15;;
83278;SDS011;73398;51.844;10.790;2024-02-28T12:49:17;19.33;;;12.00;;
83278;SDS011;73398;51.844;10.790;2024-02-28T12:51:43;22.77;;;13.02;;
83278;SDS011;73398;51.844;10.790;2024-02-28T12:54:10;20.23;;;12.77;;
83278;SDS011;73398;51.844;10.790;2024-02-28T12:56:37;20.58;;;12.95;;
83278;SDS011;73398;51.844;10.790;2024-02-28T12:59:04;21.88;;;13.75;;
83278;SDS011;73398;51.844;10.790;2024-02-28T13:01:32;20.23;;;12.82;;
83278;SDS011;73398;51.844;10.790;2024-02-28T13:03:58;22.15;;;13.20;;
83278;SDS011;73398;51.844;10.790;2024-02-28T13:06:24;22.10;;;13.55;;
83278;SDS011;73398;51.844;10.790;2024-02-28T13:08:50;22.75;;;14.13;;
83278;SDS011;73398;51.844;10.790;2024-02-28T13:11:19;22.17;;;13.63;;
83278;SDS011;73398;51.844;10.790;2024-02-28T13:13:45;22.77;;;13.90;;
83278;SDS011;73398;51.844;10.790;2024-02-28T13:16:11;21.30;;;13.98;;
83278;SDS011;73398;51.844;10.790;2024-02-28T13:18:38;21.90;;;13.70;;
83278;SDS011;73398;51.844;10.790;2024-02-28T13:21:04;22.52;;;13.65;;
83278;SDS011;73398;51.844;10.790;2024-02-28T13:23:30;22.83;;;13.80;;
83278;SDS011;73398;51.844;10.790;2024-02-28T13:25:56;23.45;;;14.35;;
83278;SDS011;73398;51.844;10.790;2024-02-28T13:28:22;24.55;;;14.15;;
83278;SDS011;73398;51.844;10.790;2024-02-28T13:30:56;22.10;;;13.82;;
83278;SDS011;73398;51.844;10.790;2024-02-28T13:33:22;24.58;;;14.75;;
83278;SDS011;73398;51.844;10.790;2024-02-28T13:35:48;21.67;;;13.77;;
83278;SDS011;73398;51.844;10.790;2024-02-28T13:38:14;25.42;;;14.38;;
83278;SDS011;73398;51.844;10.790;2024-02-28T13:40:40;22.77;;;13.95;;
83278;SDS011;73398;51.844;10.790;2024-02-28T13:43:09;21.83;;;13.55;;
83278;SDS011;73398;51.844;10.790;2024-02-28T13:45:35;22.92;;;14.30;;
83278;SDS011;73398;51.844;10.790;2024-02-28T13:48:01;21.80;;;12.45;;
83278;SDS011;73398;51.844;10.790;2024-02-28T13:50:28;23.85;;;13.18;;
83278;SDS011;73398;51.844;10.790;2024-02-28T13:52:57;23.80;;;13.73;;
83278;SDS011;73398;51.844;10.790;2024-02-28T13:55:23;22.88;;;13.00;;
83278;SDS011;73398;51.844;10.790;2024-02-28T14:00:52;22.80;;;12.93;;
83278;SDS011;73398;51.844;10.790;2024-02-28T14:03:17;24.80;;;13.90;;
83278;SDS011;73398;51.844;10.790;2024-02-28T14:05:43;23.88;;;13.68;;
83278;SDS011;73398;51.844;10.790;2024-02-28T14:08:09;24.17;;;14.18;;
83278;SDS011;73398;51.844;10.790;2024-02-28T14:10:37;23.58;;;13.90;;
83278;SDS011;73398;51.844;10.790;2024-02-28T14:13:03;24.67;;;14.05;;